Time;durP1;ratioP1;P1;durP2;ratioP2;P2;SDS_P1;SDS_P2;PMS_P1;PMS_P2;Temp;Humidity;BMP_temperature;BMP_pressure;BME280_temperature;BME280_humidity;BME280_pressure;Samples;Min_cycle;Max_cycle;Signal;HPM_P1;HPM_P2
2021/12/06 00:01:31;;;;;;;;;;;5.60;84.80;;;;;;5052004;28;20381;-75
2021/12/06 00:03:59;;;;;;;;;;;5.70;84.80;;;;;;5061927;28;19955;-75
2021/12/06 00:06:26;;;;;;;;;;;5.70;84.70;;;;;;5060863;28;19948;-75
2021/12/06 00:08:51;;;;;;;;;;;5.70;84.70;;;;;;5057313;28;20400;-75
2021/12/06 00:11:17;;;;;;;;;;;5.70;84.40;;;;;;5062065;28;19945;-75
2021/12/06 00:13:44;;;;;;;;;;;5.70;84.30;;;;;;5061900;28;19956;-75
2021/12/06 00:16:14;;;;;;;;;;;5.80;84.10;;;;;;5051780;28;20452;-75
2021/12/06 00:18:39;;;;;;;;;;;5.70;84.20;;;;;;5082434;28;19940;-75
2021/12/06 00:21:05;;;;;;;;;;;5.70;84.40;;;;;;5079864;28;20007;-75
2021/12/06 00:23:31;;;;;;;;;;;5.70;84.40;;;;;;5081944;28;19952;-75
2021/12/06 00:25:57;;;;;;;;;;;5.70;84.50;;;;;;5080772;28;20329;-75
2021/12/06 00:28:23;;;;;;;;;;;5.70;84.50;;;;;;5062899;28;19945;-75
2021/12/06 00:30:49;;;;;;;;;;;5.70;84.70;;;;;;5081037;28;19942;-75
2021/12/06 00:33:15;;;;;;;;;;;5.70;84.70;;;;;;5062690;28;19954;-75
2021/12/06 00:35:40;;;;;;;;;;;5.60;84.70;;;;;;5080922;28;19960;-75
2021/12/06 00:38:06;;;;;;;;;;;5.60;84.70;;;;;;5081472;28;20416;-75
2021/12/06 00:40:37;;;;;;;;;;;5.60;84.70;;;;;;5080756;28;20158;-75
2021/12/06 00:43:04;;;;;;;;;;;5.50;84.70;;;;;;5080729;28;20328;-75
2021/12/06 00:45:29;;;;;;;;;;;5.40;84.60;;;;;;5081332;28;20011;-75
2021/12/06 00:47:55;;;;;;;;;;;5.40;84.70;;;;;;5080965;28;20353;-75
2021/12/06 00:50:22;;;;;;;;;;;5.40;84.60;;;;;;5080786;28;19950;-75
2021/12/06 00:52:49;;;;;;;;;;;5.40;84.60;;;;;;5081000;28;20446;-75
2021/12/06 00:55:15;;;;;;;;;;;5.30;84.60;;;;;;5062443;28;19974;-75
2021/12/06 00:57:40;;;;;;;;;;;5.20;85.00;;;;;;5080797;28;19944;-75
2021/12/06 01:00:12;;;;;;;;;;;5.20;85.10;;;;;;5080920;28;20434;-75
2021/12/06 01:02:37;;;;;;;;;;;5.10;85.10;;;;;;5061555;28;20062;-75
2021/12/06 01:05:04;;;;;;;;;;;5.10;85.10;;;;;;5080710;28;20014;-75
2021/12/06 01:07:30;;;;;;;;;;;4.90;85.20;;;;;;5075168;28;19941;-75
2021/12/06 01:09:55;;;;;;;;;;;4.80;85.30;;;;;;5080114;28;20525;-75
2021/12/06 01:12:21;;;;;;;;;;;4.70;86.00;;;;;;5080610;28;19991;-75
2021/12/06 01:14:46;;;;;;;;;;;4.60;86.70;;;;;;5080711;28;20001;-75
2021/12/06 01:17:12;;;;;;;;;;;4.60;87.50;;;;;;5080931;28;20040;-75
2021/12/06 01:19:37;;;;;;;;;;;4.70;87.40;;;;;;5081308;28;20003;-75
2021/12/06 01:22:19;;;;;;;;;;;4.80;86.90;;;;;;5081294;28;19981;-75
2021/12/06 01:24:55;;;;;;;;;;;4.90;86.80;;;;;;5081712;28;19973;-75
2021/12/06 01:28:01;;;;;;;;;;;4.90;86.70;;;;;;5081539;28;20427;-75
2021/12/06 01:40:40;;;;;;;;;;;5.20;85.20;;;;;;5080727;22;19984;-75
2021/12/06 01:43:06;;;;;;;;;;;5.20;85.20;;;;;;5067681;28;20118;-75
2021/12/06 01:45:31;;;;;;;;;;;5.30;85.20;;;;;;5060616;28;19944;-75
2021/12/06 01:47:57;;;;;;;;;;;5.20;85.40;;;;;;5051849;28;19998;-75
2021/12/06 01:50:25;;;;;;;;;;;5.20;85.60;;;;;;5042541;28;19993;-75
2021/12/06 01:53:00;;;;;;;;;;;5.20;85.90;;;;;;5060313;28;19949;-75
2021/12/06 01:55:28;;;;;;;;;;;5.10;86.00;;;;;;5039218;28;20114;-75
2021/12/06 01:57:54;;;;;;;;;;;4.90;85.80;;;;;;5059632;28;19953;-75
2021/12/06 02:00:25;;;;;;;;;;;4.80;85.70;;;;;;5059493;28;19957;-75
2021/12/06 02:02:51;;;;;;;;;;;4.70;86.10;;;;;;5060797;28;19944;-75
2021/12/06 02:05:16;;;;;;;;;;;4.90;86.40;;;;;;5061035;28;19950;-75
2021/12/06 02:07:42;;;;;;;;;;;4.70;86.60;;;;;;5054618;28;19946;-75
2021/12/06 02:10:08;;;;;;;;;;;4.90;86.40;;;;;;5060499;28;19942;-75
2021/12/06 02:12:34;;;;;;;;;;;5.00;85.80;;;;;;5060691;28;20010;-75
2021/12/06 02:15:05;;;;;;;;;;;5.10;85.40;;;;;;5042417;28;20674;-75
2021/12/06 02:17:39;;;;;;;;;;;5.20;85.40;;;;;;5042978;28;20576;-75
2021/12/06 02:20:20;;;;;;;;;;;5.20;85.30;;;;;;5060662;28;19946;-75
2021/12/06 02:22:46;;;;;;;;;;;5.00;85.80;;;;;;5059959;28;20015;-75
2021/12/06 02:25:17;;;;;;;;;;;5.00;86.10;;;;;;5058936;28;20063;-75
2021/12/06 02:27:43;;;;;;;;;;;4.90;86.20;;;;;;5076246;28;19950;-75
2021/12/06 02:30:11;;;;;;;;;;;4.90;86.40;;;;;;5079787;28;20014;-75
2021/12/06 02:32:37;;;;;;;;;;;4.80;86.40;;;;;;5081088;28;20006;-75
2021/12/06 02:35:04;;;;;;;;;;;4.80;86.60;;;;;;5081493;28;19987;-75
2021/12/06 02:37:31;;;;;;;;;;;4.80;86.80;;;;;;5084338;28;19947;-75
2021/12/06 02:39:57;;;;;;;;;;;4.80;86.10;;;;;;5097535;28;19997;-75
2021/12/06 02:42:24;;;;;;;;;;;4.80;86.30;;;;;;5105358;28;19948;-75
2021/12/06 02:44:50;;;;;;;;;;;4.90;86.20;;;;;;5086872;28;19981;-75
2021/12/06 02:47:16;;;;;;;;;;;4.90;86.10;;;;;;5104430;28;19955;-75
2021/12/06 02:49:42;;;;;;;;;;;4.90;86.10;;;;;;5104432;28;20017;-75
2021/12/06 02:52:08;;;;;;;;;;;4.70;86.10;;;;;;5104291;28;19946;-75
2021/12/06 02:54:35;;;;;;;;;;;4.60;86.00;;;;;;5085133;28;20073;-75
2021/12/06 02:59:32;;;;;;;;;;;4.60;86.90;;;;;;5082963;28;19942;-75
2021/12/06 03:01:59;;;;;;;;;;;4.70;87.30;;;;;;5088195;28;19948;-75
2021/12/06 03:04:25;;;;;;;;;;;4.80;87.30;;;;;;5085363;28;20447;-75
2021/12/06 03:06:54;;;;;;;;;;;4.90;86.70;;;;;;5061138;28;20338;-75
2021/12/06 03:09:22;;;;;;;;;;;5.00;85.90;;;;;;5084095;28;19953;-75
2021/12/06 03:11:53;;;;;;;;;;;4.90;85.10;;;;;;5103479;28;19948;-75
2021/12/06 03:14:21;;;;;;;;;;;4.90;84.50;;;;;;5103189;28;20443;-75
2021/12/06 03:16:47;;;;;;;;;;;4.90;83.70;;;;;;5104142;28;20358;-75
2021/12/06 03:19:13;;;;;;;;;;;4.90;83.20;;;;;;5087181;28;19954;-75
2021/12/06 03:21:38;;;;;;;;;;;4.90;83.30;;;;;;5083425;28;19958;-75
2021/12/06 03:24:04;;;;;;;;;;;4.90;83.10;;;;;;5064756;28;19974;-75
2021/12/06 03:26:31;;;;;;;;;;;4.90;82.40;;;;;;5083314;28;19976;-75
2021/12/06 03:28:56;;;;;;;;;;;4.90;82.20;;;;;;5084025;28;19985;-75
2021/12/06 03:31:22;;;;;;;;;;;4.90;82.00;;;;;;5083591;28;20057;-75
2021/12/06 03:33:50;;;;;;;;;;;5.00;82.30;;;;;;5064509;28;19979;-75
2021/12/06 03:36:17;;;;;;;;;;;5.00;82.70;;;;;;5098659;28;19946;-75
2021/12/06 03:38:43;;;;;;;;;;;5.00;83.00;;;;;;5102700;28;20013;-75
2021/12/06 03:41:10;;;;;;;;;;;5.00;82.70;;;;;;5103025;28;19983;-75
2021/12/06 03:43:36;;;;;;;;;;;5.00;82.40;;;;;;5102289;28;20038;-75
2021/12/06 03:46:02;;;;;;;;;;;4.90;82.60;;;;;;5102688;28;19955;-75
2021/12/06 03:48:28;;;;;;;;;;;5.00;82.80;;;;;;5103316;28;20312;-75
2021/12/06 03:50:53;;;;;;;;;;;5.20;81.60;;;;;;5103152;28;19940;-75
2021/12/06 03:53:19;;;;;;;;;;;5.10;81.20;;;;;;5103456;28;19945;-75
2021/12/06 03:55:45;;;;;;;;;;;5.00;81.20;;;;;;5101686;28;20407;-75
2021/12/06 03:58:10;;;;;;;;;;;5.00;81.60;;;;;;5062773;28;19946;-74
2021/12/06 04:00:36;;;;;;;;;;;4.90;81.60;;;;;;5062919;28;19948;-75
2021/12/06 04:03:02;;;;;;;;;;;4.90;81.50;;;;;;5062176;28;20342;-75
2021/12/06 04:05:28;;;;;;;;;;;4.70;82.00;;;;;;5060958;28;20035;-75
2021/12/06 04:07:54;;;;;;;;;;;4.80;82.30;;;;;;5055940;28;20461;-75
2021/12/06 04:10:20;;;;;;;;;;;5.00;82.30;;;;;;5079121;28;19956;-74
2021/12/06 04:12:45;;;;;;;;;;;5.00;81.80;;;;;;5102913;28;20412;-75
2021/12/06 04:15:13;;;;;;;;;;;5.20;81.20;;;;;;5102199;28;19966;-74
2021/12/06 04:17:39;;;;;;;;;;;5.20;80.60;;;;;;5102000;28;20089;-74
2021/12/06 04:20:06;;;;;;;;;;;5.10;80.80;;;;;;5083670;28;19950;-75
2021/12/06 04:22:31;;;;;;;;;;;5.00;81.00;;;;;;5102700;28;20033;-75
2021/12/06 04:25:00;;;;;;;;;;;4.90;80.90;;;;;;5092299;28;20469;-75
2021/12/06 04:27:26;;;;;;;;;;;4.70;81.20;;;;;;5081509;28;20353;-75
2021/12/06 04:29:52;;;;;;;;;;;4.50;81.80;;;;;;5082037;28;20006;-75
2021/12/06 04:32:18;;;;;;;;;;;4.40;82.20;;;;;;5082248;28;19939;-75
2021/12/06 04:34:43;;;;;;;;;;;4.40;82.40;;;;;;5064495;28;19980;-75
2021/12/06 04:37:09;;;;;;;;;;;4.40;82.50;;;;;;5064727;28;19944;-75
2021/12/06 04:39:36;;;;;;;;;;;4.30;82.80;;;;;;5082831;28;20071;-75
2021/12/06 04:42:02;;;;;;;;;;;4.30;82.90;;;;;;5063650;28;20421;-75
2021/12/06 04:44:28;;;;;;;;;;;4.40;83.40;;;;;;5081433;28;20004;-75
2021/12/06 04:46:53;;;;;;;;;;;4.50;83.50;;;;;;5081564;28;20288;-75
2021/12/06 04:49:19;;;;;;;;;;;4.70;82.60;;;;;;5062399;28;19954;-75
2021/12/06 04:51:47;;;;;;;;;;;4.90;81.80;;;;;;5063407;28;20327;-75
2021/12/06 04:54:13;;;;;;;;;;;4.90;81.50;;;;;;5081113;28;19968;-75
2021/12/06 04:56:45;;;;;;;;;;;4.80;81.90;;;;;;5080996;28;19950;-75
2021/12/06 04:59:10;;;;;;;;;;;4.70;82.40;;;;;;5081654;28;19949;-75
2021/12/06 05:01:36;;;;;;;;;;;4.50;82.50;;;;;;5081718;28;20023;-74
2021/12/06 05:04:05;;;;;;;;;;;4.40;82.60;;;;;;5082861;28;20357;-75
2021/12/06 05:06:32;;;;;;;;;;;4.30;83.00;;;;;;5081758;28;20428;-75
2021/12/06 05:08:59;;;;;;;;;;;4.30;83.20;;;;;;5060566;28;19952;-74
2021/12/06 05:11:26;;;;;;;;;;;4.10;83.40;;;;;;5082782;28;19946;-75
2021/12/06 05:13:52;;;;;;;;;;;3.90;84.30;;;;;;5082614;28;19939;-75
2021/12/06 05:16:18;;;;;;;;;;;3.90;84.90;;;;;;5082228;28;19943;-75
2021/12/06 05:18:43;;;;;;;;;;;3.80;85.00;;;;;;5079446;28;20320;-75
2021/12/06 05:21:09;;;;;;;;;;;3.70;85.40;;;;;;5080792;28;19956;-74
2021/12/06 05:23:35;;;;;;;;;;;3.60;85.40;;;;;;5081285;28;20187;-75
2021/12/06 05:26:01;;;;;;;;;;;3.50;85.60;;;;;;5079383;28;20053;-75
2021/12/06 05:28:31;;;;;;;;;;;3.50;85.60;;;;;;5080477;28;20314;-75
2021/12/06 05:30:57;;;;;;;;;;;3.40;85.70;;;;;;5080816;28;20397;-75
2021/12/06 05:33:30;;;;;;;;;;;3.40;86.90;;;;;;5081314;28;20077;-75
2021/12/06 05:35:58;;;;;;;;;;;3.40;86.90;;;;;;5062865;28;19971;-74
2021/12/06 05:38:24;;;;;;;;;;;3.40;86.30;;;;;;5081126;28;20446;-75
2021/12/06 05:40:50;;;;;;;;;;;3.40;85.80;;;;;;5081349;28;19982;-75
2021/12/06 05:43:15;;;;;;;;;;;3.30;86.80;;;;;;5081007;28;20052;-75
2021/12/06 05:45:41;;;;;;;;;;;3.20;87.20;;;;;;5081175;28;19985;-75
2021/12/06 05:48:06;;;;;;;;;;;3.20;87.80;;;;;;5079633;28;20005;-75
2021/12/06 05:50:32;;;;;;;;;;;3.20;88.50;;;;;;5081074;28;20002;-75
2021/12/06 05:52:58;;;;;;;;;;;3.20;88.30;;;;;;5080762;28;20492;-75
2021/12/06 05:55:27;;;;;;;;;;;3.20;88.60;;;;;;5080489;28;19962;-75
2021/12/06 05:57:53;;;;;;;;;;;3.10;89.60;;;;;;5079535;28;19964;-75
2021/12/06 06:00:21;;;;;;;;;;;3.00;89.70;;;;;;5079013;28;19953;-75
2021/12/06 06:02:46;;;;;;;;;;;2.90;90.00;;;;;;5079322;28;20051;-75
2021/12/06 06:05:12;;;;;;;;;;;2.90;90.30;;;;;;5080455;28;20501;-75
2021/12/06 06:07:38;;;;;;;;;;;2.90;90.70;;;;;;5058601;28;19945;-75
2021/12/06 06:10:04;;;;;;;;;;;2.70;90.60;;;;;;5082579;28;19948;-75
2021/12/06 06:12:30;;;;;;;;;;;2.70;90.50;;;;;;5084205;28;19955;-75
2021/12/06 06:14:56;;;;;;;;;;;2.70;90.40;;;;;;5083079;28;20694;-75
2021/12/06 06:17:21;;;;;;;;;;;2.70;90.60;;;;;;5082641;28;19957;-75
2021/12/06 06:19:52;;;;;;;;;;;2.80;90.50;;;;;;5065063;28;19960;-75
2021/12/06 06:22:18;;;;;;;;;;;2.90;89.90;;;;;;5084282;28;20186;-75
2021/12/06 06:24:43;;;;;;;;;;;2.70;89.70;;;;;;5082713;28;19950;-75
2021/12/06 06:27:09;;;;;;;;;;;2.70;89.70;;;;;;5081935;28;20023;-75
2021/12/06 06:29:35;;;;;;;;;;;2.70;89.30;;;;;;5064454;28;20429;-75
2021/12/06 06:32:01;;;;;;;;;;;2.60;89.40;;;;;;5080611;28;19953;-75
2021/12/06 06:34:27;;;;;;;;;;;2.50;89.70;;;;;;5078941;28;20195;-74
2021/12/06 06:36:52;;;;;;;;;;;2.50;90.10;;;;;;5080633;28;19944;-75
2021/12/06 06:39:19;;;;;;;;;;;2.50;89.90;;;;;;5086640;28;19982;-75
2021/12/06 06:41:46;;;;;;;;;;;2.60;90.10;;;;;;5086766;28;19949;-75
2021/12/06 06:44:12;;;;;;;;;;;2.60;90.10;;;;;;5083277;28;19952;-76
2021/12/06 06:46:38;;;;;;;;;;;2.70;90.00;;;;;;5059967;28;20291;-76
2021/12/06 06:49:04;;;;;;;;;;;2.90;89.80;;;;;;5080472;28;19994;-76
2021/12/06 06:51:29;;;;;;;;;;;3.10;89.20;;;;;;5080294;28;20048;-76
2021/12/06 06:53:55;;;;;;;;;;;3.10;88.70;;;;;;5078961;28;19996;-76
2021/12/06 06:56:21;;;;;;;;;;;3.20;88.50;;;;;;5077985;28;19998;-76
2021/12/06 06:58:46;;;;;;;;;;;2.90;88.00;;;;;;5071646;28;19944;-75
2021/12/06 07:01:12;;;;;;;;;;;2.70;87.90;;;;;;5073722;28;19959;-76
2021/12/06 07:03:37;;;;;;;;;;;2.60;88.30;;;;;;5062797;28;19956;-75
2021/12/06 07:06:05;;;;;;;;;;;2.50;88.00;;;;;;5073983;28;19984;-75
2021/12/06 07:08:30;;;;;;;;;;;2.40;87.80;;;;;;5057396;28;19957;-75
2021/12/06 07:10:56;;;;;;;;;;;2.30;88.30;;;;;;5062551;28;19955;-73
2021/12/06 07:13:22;;;;;;;;;;;2.20;88.70;;;;;;5079304;28;19955;-75
2021/12/06 07:15:49;;;;;;;;;;;2.20;89.00;;;;;;5062078;28;20031;-75
2021/12/06 07:18:15;;;;;;;;;;;2.20;89.40;;;;;;5074224;28;20315;-75
2021/12/06 07:20:40;;;;;;;;;;;2.20;89.90;;;;;;5071783;28;20281;-75
2021/12/06 07:23:06;;;;;;;;;;;2.30;90.20;;;;;;5072820;28;20497;-73
2021/12/06 07:25:33;;;;;;;;;;;2.40;90.60;;;;;;5076054;28;20342;-73
2021/12/06 07:27:59;;;;;;;;;;;2.50;90.70;;;;;;5058449;28;20407;-74
2021/12/06 07:30:25;;;;;;;;;;;2.60;90.60;;;;;;5054767;28;19986;-75
2021/12/06 07:32:52;;;;;;;;;;;2.50;89.60;;;;;;5068141;28;20046;-75
2021/12/06 07:35:18;;;;;;;;;;;2.50;89.80;;;;;;5054972;28;20070;-75
2021/12/06 07:37:44;;;;;;;;;;;2.60;89.80;;;;;;5076490;28;19951;-75
2021/12/06 07:40:10;;;;;;;;;;;2.70;89.40;;;;;;5059457;28;20005;-75
2021/12/06 07:42:36;;;;;;;;;;;2.80;89.00;;;;;;5076900;28;19955;-75
2021/12/06 07:45:02;;;;;;;;;;;2.80;88.80;;;;;;5079071;28;19960;-75
2021/12/06 07:47:28;;;;;;;;;;;2.90;88.80;;;;;;5059606;28;19946;-73
2021/12/06 07:49:54;;;;;;;;;;;2.90;89.20;;;;;;5079127;28;20451;-73
2021/12/06 07:52:20;;;;;;;;;;;3.00;89.20;;;;;;5075911;28;20487;-74
2021/12/06 07:54:45;;;;;;;;;;;2.90;89.20;;;;;;5078370;28;19975;-73
2021/12/06 07:57:11;;;;;;;;;;;3.00;89.40;;;;;;5060299;28;20325;-73
2021/12/06 07:59:37;;;;;;;;;;;3.20;89.60;;;;;;5079674;28;20278;-73
2021/12/06 08:02:04;;;;;;;;;;;3.30;89.60;;;;;;5077851;28;19954;-74
2021/12/06 08:04:30;;;;;;;;;;;3.60;88.40;;;;;;5074037;28;20008;-73
2021/12/06 08:06:55;;;;;;;;;;;3.60;87.20;;;;;;5075447;28;20515;-73
2021/12/06 08:09:21;;;;;;;;;;;3.80;86.30;;;;;;5071005;28;19956;-73
2021/12/06 08:11:46;;;;;;;;;;;3.80;85.70;;;;;;5058765;28;20592;-74
2021/12/06 08:14:12;;;;;;;;;;;3.90;85.50;;;;;;5076968;28;19977;-74
2021/12/06 08:16:41;;;;;;;;;;;3.90;85.30;;;;;;5077260;28;19967;-74
2021/12/06 08:19:07;;;;;;;;;;;3.90;85.20;;;;;;5077962;28;20491;-73
2021/12/06 08:21:33;;;;;;;;;;;3.90;85.10;;;;;;5077482;28;19956;-73
2021/12/06 08:24:00;;;;;;;;;;;3.90;84.90;;;;;;5064151;28;20462;-73
2021/12/06 08:26:31;;;;;;;;;;;4.00;84.90;;;;;;5072614;28;20238;-73
2021/12/06 08:28:58;;;;;;;;;;;4.00;84.50;;;;;;5077125;28;20402;-73
2021/12/06 08:31:24;;;;;;;;;;;4.00;84.90;;;;;;5059303;28;20060;-73
2021/12/06 08:33:50;;;;;;;;;;;4.00;84.90;;;;;;5076927;28;20380;-74
2021/12/06 08:36:16;;;;;;;;;;;4.10;84.70;;;;;;5058110;28;19964;-74
2021/12/06 08:38:41;;;;;;;;;;;4.20;84.50;;;;;;5076382;28;20029;-73
2021/12/06 08:41:09;;;;;;;;;;;4.40;84.60;;;;;;5075932;28;19986;-73
2021/12/06 08:43:37;;;;;;;;;;;4.50;84.40;;;;;;5058336;28;20002;-73
2021/12/06 08:46:11;;;;;;;;;;;4.60;84.00;;;;;;5075960;28;19968;-73
2021/12/06 08:48:38;;;;;;;;;;;4.90;82.30;;;;;;5058680;28;19948;-72
2021/12/06 08:51:05;;;;;;;;;;;5.00;81.40;;;;;;5073084;28;20428;-74
2021/12/06 08:53:32;;;;;;;;;;;5.20;82.70;;;;;;5056881;28;19948;-74
2021/12/06 08:55:57;;;;;;;;;;;5.10;83.50;;;;;;5075216;28;20216;-74
2021/12/06 08:58:23;;;;;;;;;;;5.10;82.70;;;;;;5076666;28;19975;-74
2021/12/06 09:00:49;;;;;;;;;;;5.20;82.50;;;;;;5074776;28;21106;-75
2021/12/06 09:03:15;;;;;;;;;;;5.30;82.20;;;;;;5073857;28;20417;-75
2021/12/06 09:05:42;;;;;;;;;;;5.40;82.70;;;;;;5076689;28;19957;-74
2021/12/06 09:08:08;;;;;;;;;;;5.50;82.10;;;;;;5072159;28;20046;-74
2021/12/06 09:10:34;;;;;;;;;;;5.70;80.90;;;;;;5077734;28;20423;-74
2021/12/06 09:13:00;;;;;;;;;;;6.10;77.10;;;;;;5076602;28;19989;-74
2021/12/06 09:15:26;;;;;;;;;;;6.40;76.40;;;;;;5075627;28;20808;-74
2021/12/06 09:17:52;;;;;;;;;;;6.60;74.70;;;;;;5074537;28;20007;-74
2021/12/06 09:20:19;;;;;;;;;;;6.90;72.30;;;;;;5073380;28;19963;-74
2021/12/06 09:22:47;;;;;;;;;;;7.00;70.60;;;;;;5075412;28;19950;-74
2021/12/06 09:25:13;;;;;;;;;;;7.20;69.10;;;;;;5075525;28;19959;-75
2021/12/06 09:27:39;;;;;;;;;;;7.10;68.60;;;;;;5076682;28;20798;-75
2021/12/06 09:30:05;;;;;;;;;;;7.10;68.60;;;;;;5074861;28;20411;-74
2021/12/06 09:32:31;;;;;;;;;;;7.00;70.20;;;;;;5073437;28;20039;-75
2021/12/06 09:34:58;;;;;;;;;;;7.10;69.90;;;;;;5072090;28;19966;-75
2021/12/06 09:37:24;;;;;;;;;;;7.10;69.80;;;;;;5073705;28;20026;-75
2021/12/06 09:39:51;;;;;;;;;;;7.30;67.40;;;;;;5064556;23;19983;-75
2021/12/06 09:42:18;;;;;;;;;;;7.40;66.20;;;;;;5059187;28;19952;-75
2021/12/06 09:44:44;;;;;;;;;;;7.40;66.00;;;;;;5054841;28;19947;-75
2021/12/06 09:47:10;;;;;;;;;;;7.50;65.30;;;;;;5053489;28;20626;-75
2021/12/06 09:49:36;;;;;;;;;;;7.50;65.60;;;;;;5054697;28;19947;-75
2021/12/06 09:52:03;;;;;;;;;;;7.60;64.40;;;;;;5053204;28;20578;-75
2021/12/06 09:54:31;;;;;;;;;;;7.70;65.60;;;;;;5020041;28;20016;-75
2021/12/06 09:56:58;;;;;;;;;;;7.80;64.80;;;;;;5052660;28;19992;-75
2021/12/06 09:59:26;;;;;;;;;;;8.10;62.00;;;;;;5049609;28;19975;-75
2021/12/06 10:01:57;;;;;;;;;;;8.40;62.20;;;;;;5051030;28;20120;-75
2021/12/06 10:04:25;;;;;;;;;;;8.50;63.20;;;;;;5053935;28;19954;-75
2021/12/06 10:06:50;;;;;;;;;;;8.70;63.60;;;;;;5058173;28;20008;-75
2021/12/06 10:09:17;;;;;;;;;;;8.70;61.90;;;;;;5046481;28;20040;-75
2021/12/06 10:11:42;;;;;;;;;;;8.70;62.30;;;;;;5051905;28;20043;-76
2021/12/06 10:14:09;;;;;;;;;;;8.80;61.40;;;;;;5032143;28;20610;-76
2021/12/06 10:16:35;;;;;;;;;;;8.70;61.00;;;;;;5036123;28;19942;-76
2021/12/06 10:19:00;;;;;;;;;;;8.80;61.40;;;;;;5050872;28;19957;-76
2021/12/06 10:21:27;;;;;;;;;;;8.80;61.90;;;;;;5039483;28;19951;-76
2021/12/06 10:23:54;;;;;;;;;;;8.80;62.30;;;;;;5056683;28;20384;-76
2021/12/06 10:26:21;;;;;;;;;;;8.80;59.40;;;;;;5053152;28;19973;-76
2021/12/06 10:28:47;;;;;;;;;;;8.90;61.10;;;;;;5052072;28;19944;-76
2021/12/06 10:31:13;;;;;;;;;;;8.90;58.60;;;;;;5033261;28;19966;-75
2021/12/06 10:33:41;;;;;;;;;;;8.90;58.40;;;;;;5037135;28;20358;-76
2021/12/06 10:36:08;;;;;;;;;;;8.90;58.60;;;;;;5057083;28;20096;-76
2021/12/06 10:38:41;;;;;;;;;;;9.00;57.90;;;;;;5054858;28;20616;-76
2021/12/06 10:41:08;;;;;;;;;;;9.10;56.70;;;;;;5075059;28;19957;-76
2021/12/06 10:43:35;;;;;;;;;;;9.20;57.00;;;;;;5078451;28;19954;-76
2021/12/06 10:46:01;;;;;;;;;;;9.30;56.40;;;;;;5075059;28;20086;-76
2021/12/06 10:48:37;;;;;;;;;;;9.40;57.80;;;;;;5072462;28;20370;-76
2021/12/06 10:51:05;;;;;;;;;;;9.50;58.70;;;;;;5060729;28;19966;-76
2021/12/06 10:53:36;;;;;;;;;;;9.60;56.70;;;;;;5075020;28;19965;-76
2021/12/06 10:56:02;;;;;;;;;;;9.70;58.60;;;;;;5072314;28;19964;-75
2021/12/06 10:58:29;;;;;;;;;;;9.70;56.30;;;;;;5076200;28;20014;-75
2021/12/06 11:00:56;;;;;;;;;;;9.80;56.60;;;;;;5070103;28;19952;-75
2021/12/06 11:03:24;;;;;;;;;;;9.90;53.90;;;;;;5066707;28;19950;-75
2021/12/06 11:05:51;;;;;;;;;;;9.90;53.10;;;;;;5068122;28;20479;-75
2021/12/06 11:08:17;;;;;;;;;;;10.00;52.30;;;;;;5066851;28;19955;-75
2021/12/06 11:10:46;;;;;;;;;;;10.20;49.50;;;;;;5073344;28;20251;-75
2021/12/06 11:13:20;;;;;;;;;;;10.40;47.50;;;;;;5052971;28;19959;-75
2021/12/06 11:15:58;;;;;;;;;;;10.50;46.80;;;;;;5079916;28;19969;-75
2021/12/06 11:18:44;;;;;;;;;;;10.60;47.60;;;;;;5078421;28;20064;-75
2021/12/06 11:21:14;;;;;;;;;;;10.80;45.40;;;;;;5066163;28;19983;-75
2021/12/06 11:23:58;;;;;;;;;;;10.80;45.30;;;;;;5061755;28;19948;-75
2021/12/06 11:26:24;;;;;;;;;;;11.20;44.30;;;;;;5059859;28;20456;-76
2021/12/06 11:28:50;;;;;;;;;;;11.40;42.50;;;;;;5067269;28;20397;-75
2021/12/06 11:31:16;;;;;;;;;;;11.20;42.90;;;;;;5079801;28;20438;-75
2021/12/06 11:33:42;;;;;;;;;;;11.30;43.00;;;;;;5080363;28;19968;-76
2021/12/06 11:36:19;;;;;;;;;;;11.50;42.10;;;;;;5077026;28;20446;-75
2021/12/06 11:38:56;;;;;;;;;;;11.80;41.80;;;;;;5042484;28;19984;-75
2021/12/06 11:41:22;;;;;;;;;;;12.30;41.10;;;;;;5059315;28;20042;-75
2021/12/06 11:43:47;;;;;;;;;;;12.70;37.30;;;;;;5060382;28;20732;-76
2021/12/06 11:46:25;;;;;;;;;;;13.30;35.70;;;;;;5059362;28;19948;-76
2021/12/06 11:48:50;;;;;;;;;;;13.80;36.00;;;;;;5059908;28;20057;-76
2021/12/06 11:51:18;;;;;;;;;;;14.40;35.90;;;;;;5059873;28;19949;-76
2021/12/06 11:53:46;;;;;;;;;;;15.10;36.10;;;;;;5060632;28;19943;-76
2021/12/06 11:56:12;;;;;;;;;;;15.70;35.20;;;;;;5079368;28;20083;-76
2021/12/06 11:58:39;;;;;;;;;;;15.80;32.80;;;;;;5079779;28;19967;-76
2021/12/06 12:01:09;;;;;;;;;;;16.00;31.50;;;;;;5079230;28;20564;-75
2021/12/06 12:03:36;;;;;;;;;;;15.60;33.40;;;;;;5078634;28;20030;-75
2021/12/06 12:06:02;;;;;;;;;;;15.60;35.20;;;;;;5076137;28;19953;-75
2021/12/06 12:08:30;;;;;;;;;;;15.70;35.50;;;;;;5072912;28;19955;-75
2021/12/06 12:10:56;;;;;;;;;;;15.30;33.30;;;;;;5079884;28;19939;-75
2021/12/06 12:13:27;;;;;;;;;;;15.10;35.40;;;;;;5060771;28;19958;-75
2021/12/06 12:16:02;;;;;;;;;;;15.10;34.80;;;;;;5079015;28;19968;-75
2021/12/06 12:18:28;;;;;;;;;;;15.00;34.20;;;;;;5060556;28;19958;-75
2021/12/06 12:20:55;;;;;;;;;;;15.30;34.40;;;;;;5079152;28;19956;-75
2021/12/06 12:23:22;;;;;;;;;;;15.40;34.00;;;;;;5070088;28;19952;-75
2021/12/06 12:28:23;;;;;;;;;;;15.90;33.00;;;;;;5073003;28;20230;-75
2021/12/06 12:30:50;;;;;;;;;;;16.10;31.50;;;;;;5051368;28;19991;-75
2021/12/06 12:33:19;;;;;;;;;;;16.00;32.60;;;;;;5069270;28;19956;-75
2021/12/06 12:35:46;;;;;;;;;;;15.90;31.40;;;;;;5069831;28;20470;-74
2021/12/06 12:38:12;;;;;;;;;;;15.80;32.00;;;;;;5064251;28;19976;-75
2021/12/06 12:40:40;;;;;;;;;;;15.90;31.60;;;;;;5065861;28;20151;-75
2021/12/06 12:43:14;;;;;;;;;;;15.80;32.00;;;;;;5060013;28;19970;-75
2021/12/06 12:45:45;;;;;;;;;;;15.60;33.60;;;;;;5057593;28;20008;-74
2021/12/06 12:48:11;;;;;;;;;;;15.30;33.90;;;;;;5057421;28;19948;-74
2021/12/06 12:50:37;;;;;;;;;;;15.10;34.30;;;;;;5056842;28;19958;-74
2021/12/06 12:53:10;;;;;;;;;;;15.40;33.30;;;;;;5056215;28;19958;-74
2021/12/06 12:55:41;;;;;;;;;;;15.80;33.20;;;;;;5060921;28;19974;-74
2021/12/06 12:58:15;;;;;;;;;;;16.10;32.40;;;;;;5055957;28;19949;-75
2021/12/06 13:00:49;;;;;;;;;;;16.10;32.30;;;;;;5060383;28;20057;-74
2021/12/06 13:03:29;;;;;;;;;;;16.10;31.80;;;;;;5040564;28;20370;-74
2021/12/06 13:06:13;;;;;;;;;;;16.60;31.70;;;;;;5059887;28;19951;-74
2021/12/06 13:08:38;;;;;;;;;;;16.60;31.50;;;;;;5058194;28;19951;-74
2021/12/06 13:11:04;;;;;;;;;;;16.20;31.40;;;;;;5061070;28;20397;-74
2021/12/06 13:13:35;;;;;;;;;;;16.00;31.60;;;;;;5060525;28;20414;-74
2021/12/06 13:16:26;;;;;;;;;;;16.20;30.00;;;;;;5051343;28;20074;-74
2021/12/06 13:21:46;;;;;;;;;;;16.00;30.30;;;;;;5055897;28;19967;-74
2021/12/06 13:24:11;;;;;;;;;;;16.70;29.00;;;;;;5055680;28;19975;-74
2021/12/06 13:26:39;;;;;;;;;;;17.20;27.90;;;;;;5058222;28;20005;-75
2021/12/06 13:29:06;;;;;;;;;;;17.00;30.30;;;;;;5052093;28;19947;-74
2021/12/06 13:31:32;;;;;;;;;;;16.70;30.60;;;;;;5056970;28;20738;-75
2021/12/06 13:33:58;;;;;;;;;;;16.50;31.30;;;;;;5059450;28;19986;-74
2021/12/06 13:36:39;;;;;;;;;;;16.40;34.00;;;;;;5055117;28;20441;-75
2021/12/06 13:39:25;;;;;;;;;;;16.60;32.60;;;;;;5053021;28;19975;-75
2021/12/06 13:41:50;;;;;;;;;;;16.20;33.70;;;;;;5053593;28;20484;-73
2021/12/06 13:44:21;;;;;;;;;;;15.60;35.50;;;;;;5055606;28;19983;-74
2021/12/06 13:46:50;;;;;;;;;;;15.30;37.30;;;;;;5036410;28;19945;-74
2021/12/06 13:49:18;;;;;;;;;;;15.20;37.30;;;;;;5049130;28;19948;-74
2021/12/06 13:51:45;;;;;;;;;;;15.10;37.80;;;;;;5051401;28;19945;-74
2021/12/06 13:54:17;;;;;;;;;;;15.20;37.50;;;;;;5053328;28;19952;-74
2021/12/06 13:56:54;;;;;;;;;;;15.60;37.00;;;;;;5035062;28;20018;-74
2021/12/06 13:59:22;;;;;;;;;;;16.00;36.80;;;;;;5049759;28;19946;-75
2021/12/06 14:01:48;;;;;;;;;;;16.00;36.40;;;;;;5052592;28;19976;-74
2021/12/06 14:04:16;;;;;;;;;;;16.20;36.30;;;;;;5048892;28;19960;-74
2021/12/06 14:06:41;;;;;;;;;;;16.20;37.50;;;;;;5047754;28;20019;-74
2021/12/06 14:09:07;;;;;;;;;;;16.20;36.60;;;;;;5048761;28;20354;-74
2021/12/06 14:11:32;;;;;;;;;;;16.10;37.60;;;;;;5050682;28;19960;-74
2021/12/06 14:13:59;;;;;;;;;;;15.80;38.40;;;;;;5040928;28;20784;-73
2021/12/06 14:16:29;;;;;;;;;;;15.70;38.70;;;;;;5051679;28;20057;-74
2021/12/06 14:18:55;;;;;;;;;;;15.50;38.30;;;;;;5053370;28;19946;-74
2021/12/06 14:21:21;;;;;;;;;;;15.30;39.10;;;;;;5034501;28;19955;-75
2021/12/06 14:23:47;;;;;;;;;;;15.30;40.40;;;;;;5049090;28;19956;-75
2021/12/06 14:26:14;;;;;;;;;;;15.40;39.90;;;;;;5054456;28;19972;-75
2021/12/06 14:28:45;;;;;;;;;;;15.40;39.90;;;;;;5055569;28;20418;-75
2021/12/06 14:31:11;;;;;;;;;;;15.50;39.80;;;;;;5042522;28;19987;-75
2021/12/06 14:33:37;;;;;;;;;;;15.50;39.40;;;;;;5056699;28;19955;-75
2021/12/06 14:36:04;;;;;;;;;;;15.50;39.50;;;;;;5039145;28;19967;-76
2021/12/06 14:38:31;;;;;;;;;;;15.60;40.10;;;;;;5057028;28;20398;-75
2021/12/06 14:40:59;;;;;;;;;;;15.60;39.70;;;;;;5062659;28;19955;-75
2021/12/06 14:43:24;;;;;;;;;;;15.50;40.10;;;;;;5065704;28;19969;-76
2021/12/06 14:45:50;;;;;;;;;;;15.50;39.00;;;;;;5058791;28;20509;-75